sensor_id;sensor_type;location;lat;lon;timestamp;P1;durP1;ratioP1;P2;durP2;ratioP2
42000;SDS011;27689;48.390;10.856;2022-09-09T00:04:09;4.65;;;1.80;;
42000;SDS011;27689;48.390;10.856;2022-09-09T00:07:33;5.03;;;2.25;;
42000;SDS011;27689;48.390;10.856;2022-09-09T00:10:18;3.92;;;2.20;;
42000;SDS011;27689;48.390;10.856;2022-09-09T00:19:26;2.05;;;1.75;;
42000;SDS011;27689;48.390;10.856;2022-09-09T00:22:21;2.88;;;1.90;;
42000;SDS011;27689;48.390;10.856;2022-09-09T00:28:36;1.77;;;1.50;;
42000;SDS011;27689;48.390;10.856;2022-09-09T00:31:26;3.13;;;1.73;;
42000;SDS011;27689;48.390;10.856;2022-09-09T00:34:18;2.85;;;1.77;;
42000;SDS011;27689;48.390;10.856;2022-09-09T00:37:07;5.00;;;2.03;;
42000;SDS011;27689;48.390;10.856;2022-09-09T00:39:53;5.35;;;1.80;;
42000;SDS011;27689;48.390;10.856;2022-09-09T00:42:41;2.83;;;1.70;;
42000;SDS011;27689;48.390;10.856;2022-09-09T00:48:16;3.65;;;2.10;;
42000;SDS011;27689;48.390;10.856;2022-09-09T00:51:02;2.78;;;1.63;;
42000;SDS011;27689;48.390;10.856;2022-09-09T00:57:01;4.72;;;1.67;;
42000;SDS011;27689;48.390;10.856;2022-09-09T01:06:16;4.75;;;1.88;;
42000;SDS011;27689;48.390;10.856;2022-09-09T01:15:10;2.33;;;1.58;;
42000;SDS011;27689;48.390;10.856;2022-09-09T01:18:04;3.45;;;2.08;;
42000;SDS011;27689;48.390;10.856;2022-09-09T01:23:54;2.75;;;1.67;;
42000;SDS011;27689;48.390;10.856;2022-09-09T01:26:56;2.33;;;1.58;;
42000;SDS011;27689;48.390;10.856;2022-09-09T01:29:44;1.83;;;1.63;;
42000;SDS011;27689;48.390;10.856;2022-09-09T01:38:32;2.72;;;1.60;;
42000;SDS011;27689;48.390;10.856;2022-09-09T01:44:01;3.10;;;1.50;;
42000;SDS011;27689;48.390;10.856;2022-09-09T01:49:30;2.45;;;1.70;;
42000;SDS011;27689;48.390;10.856;2022-09-09T01:52:14;1.92;;;1.60;;
42000;SDS011;27689;48.390;10.856;2022-09-09T01:54:58;2.63;;;1.80;;
42000;SDS011;27689;48.390;10.856;2022-09-09T02:00:26;4.57;;;2.53;;
42000;SDS011;27689;48.390;10.856;2022-09-09T02:03:23;3.90;;;2.55;;
42000;SDS011;27689;48.390;10.856;2022-09-09T02:06:25;4.03;;;2.53;;
42000;SDS011;27689;48.390;10.856;2022-09-09T02:09:10;4.18;;;2.83;;
42000;SDS011;27689;48.390;10.856;2022-09-09T02:12:02;6.38;;;2.92;;
42000;SDS011;27689;48.390;10.856;2022-09-09T02:15:05;4.25;;;3.03;;
42000;SDS011;27689;48.390;10.856;2022-09-09T02:17:55;3.97;;;2.47;;
42000;SDS011;27689;48.390;10.856;2022-09-09T02:20:42;3.58;;;2.85;;
42000;SDS011;27689;48.390;10.856;2022-09-09T02:23:28;3.25;;;2.53;;
42000;SDS011;27689;48.390;10.856;2022-09-09T02:26:14;3.80;;;2.60;;
42000;SDS011;27689;48.390;10.856;2022-09-09T02:29:04;4.30;;;3.10;;
42000;SDS011;27689;48.390;10.856;2022-09-09T02:31:53;3.45;;;2.50;;
42000;SDS011;27689;48.390;10.856;2022-09-09T02:34:44;4.68;;;2.65;;
42000;SDS011;27689;48.390;10.856;2022-09-09T02:37:34;4.85;;;3.42;;
42000;SDS011;27689;48.390;10.856;2022-09-09T02:40:20;5.00;;;2.90;;
42000;SDS011;27689;48.390;10.856;2022-09-09T02:43:04;5.53;;;2.70;;
42000;SDS011;27689;48.390;10.856;2022-09-09T02:48:41;3.60;;;2.70;;
42000;SDS011;27689;48.390;10.856;2022-09-09T02:51:48;4.43;;;2.60;;
42000;SDS011;27689;48.390;10.856;2022-09-09T02:54:44;6.45;;;2.80;;
42000;SDS011;27689;48.390;10.856;2022-09-09T02:57:28;4.93;;;3.00;;
42000;SDS011;27689;48.390;10.856;2022-09-09T03:00:15;3.95;;;3.03;;
42000;SDS011;27689;48.390;10.856;2022-09-09T03:02:59;5.53;;;3.03;;
42000;SDS011;27689;48.390;10.856;2022-09-09T03:05:43;4.28;;;3.20;;
42000;SDS011;27689;48.390;10.856;2022-09-09T03:08:27;3.58;;;3.03;;
42000;SDS011;27689;48.390;10.856;2022-09-09T03:11:11;4.03;;;2.50;;
42000;SDS011;27689;48.390;10.856;2022-09-09T03:13:55;4.20;;;2.70;;
42000;SDS011;27689;48.390;10.856;2022-09-09T03:16:39;5.80;;;3.30;;
42000;SDS011;27689;48.390;10.856;2022-09-09T03:19:23;4.68;;;3.40;;
42000;SDS011;27689;48.390;10.856;2022-09-09T03:22:09;7.80;;;3.70;;
42000;SDS011;27689;48.390;10.856;2022-09-09T03:24:54;5.65;;;3.58;;
42000;SDS011;27689;48.390;10.856;2022-09-09T03:27:38;7.00;;;4.00;;
42000;SDS011;27689;48.390;10.856;2022-09-09T03:30:23;10.48;;;3.95;;
42000;SDS011;27689;48.390;10.856;2022-09-09T03:33:08;8.20;;;3.72;;
42000;SDS011;27689;48.390;10.856;2022-09-09T03:35:52;4.97;;;3.88;;
42000;SDS011;27689;48.390;10.856;2022-09-09T03:38:36;5.60;;;3.38;;
42000;SDS011;27689;48.390;10.856;2022-09-09T03:41:21;8.02;;;2.88;;
42000;SDS011;27689;48.390;10.856;2022-09-09T03:44:07;4.93;;;3.40;;
42000;SDS011;27689;48.390;10.856;2022-09-09T03:46:51;6.25;;;3.42;;
42000;SDS011;27689;48.390;10.856;2022-09-09T03:49:34;5.10;;;2.70;;
42000;SDS011;27689;48.390;10.856;2022-09-09T03:52:18;5.40;;;2.75;;
42000;SDS011;27689;48.390;10.856;2022-09-09T03:55:04;4.53;;;2.45;;
42000;SDS011;27689;48.390;10.856;2022-09-09T03:57:49;3.72;;;2.50;;
42000;SDS011;27689;48.390;10.856;2022-09-09T04:00:33;3.55;;;2.08;;
42000;SDS011;27689;48.390;10.856;2022-09-09T04:03:17;2.80;;;2.08;;
42000;SDS011;27689;48.390;10.856;2022-09-09T04:06:01;4.00;;;2.20;;
42000;SDS011;27689;48.390;10.856;2022-09-09T04:08:46;4.05;;;2.47;;
42000;SDS011;27689;48.390;10.856;2022-09-09T04:11:32;4.13;;;2.22;;
42000;SDS011;27689;48.390;10.856;2022-09-09T04:14:16;2.70;;;2.08;;
42000;SDS011;27689;48.390;10.856;2022-09-09T04:16:59;5.13;;;2.50;;
42000;SDS011;27689;48.390;10.856;2022-09-09T04:19:44;5.85;;;2.30;;
42000;SDS011;27689;48.390;10.856;2022-09-09T04:22:28;4.40;;;2.70;;
42000;SDS011;27689;48.390;10.856;2022-09-09T04:25:12;4.88;;;2.22;;
42000;SDS011;27689;48.390;10.856;2022-09-09T04:27:56;6.20;;;2.58;;
42000;SDS011;27689;48.390;10.856;2022-09-09T04:30:41;4.60;;;2.90;;
42000;SDS011;27689;48.390;10.856;2022-09-09T04:33:27;2.95;;;2.63;;
42000;SDS011;27689;48.390;10.856;2022-09-09T04:36:10;4.82;;;3.00;;
42000;SDS011;27689;48.390;10.856;2022-09-09T04:38:55;3.90;;;3.47;;
42000;SDS011;27689;48.390;10.856;2022-09-09T04:41:38;4.47;;;3.05;;
42000;SDS011;27689;48.390;10.856;2022-09-09T04:44:22;4.03;;;2.90;;
42000;SDS011;27689;48.390;10.856;2022-09-09T04:47:06;5.13;;;3.42;;
42000;SDS011;27689;48.390;10.856;2022-09-09T04:49:50;4.50;;;3.30;;
42000;SDS011;27689;48.390;10.856;2022-09-09T04:52:35;4.38;;;2.88;;
42000;SDS011;27689;48.390;10.856;2022-09-09T04:55:19;3.83;;;2.95;;
42000;SDS011;27689;48.390;10.856;2022-09-09T04:58:04;4.10;;;2.90;;
42000;SDS011;27689;48.390;10.856;2022-09-09T05:03:33;3.65;;;2.33;;
42000;SDS011;27689;48.390;10.856;2022-09-09T05:06:18;5.55;;;3.40;;
42000;SDS011;27689;48.390;10.856;2022-09-09T05:09:03;5.03;;;3.20;;
42000;SDS011;27689;48.390;10.856;2022-09-09T05:11:47;4.77;;;3.30;;
42000;SDS011;27689;48.390;10.856;2022-09-09T05:14:31;5.18;;;3.47;;
42000;SDS011;27689;48.390;10.856;2022-09-09T05:17:15;6.57;;;3.95;;
42000;SDS011;27689;48.390;10.856;2022-09-09T05:19:59;6.72;;;3.55;;
42000;SDS011;27689;48.390;10.856;2022-09-09T05:22:43;5.45;;;3.55;;
42000;SDS011;27689;48.390;10.856;2022-09-09T05:25:27;4.63;;;3.13;;
42000;SDS011;27689;48.390;10.856;2022-09-09T05:28:11;3.33;;;2.55;;
42000;SDS011;27689;48.390;10.856;2022-09-09T05:31:14;3.25;;;2.22;;
42000;SDS011;27689;48.390;10.856;2022-09-09T05:33:59;2.70;;;1.98;;
42000;SDS011;27689;48.390;10.856;2022-09-09T05:36:43;4.32;;;2.05;;
42000;SDS011;27689;48.390;10.856;2022-09-09T05:39:27;2.50;;;1.60;;
42000;SDS011;27689;48.390;10.856;2022-09-09T05:42:11;2.10;;;1.53;;
42000;SDS011;27689;48.390;10.856;2022-09-09T05:44:55;3.97;;;1.60;;
42000;SDS011;27689;48.390;10.856;2022-09-09T05:47:39;7.10;;;1.80;;
42000;SDS011;27689;48.390;10.856;2022-09-09T05:50:22;1.85;;;1.38;;
42000;SDS011;27689;48.390;10.856;2022-09-09T05:53:06;3.75;;;1.50;;
42000;SDS011;27689;48.390;10.856;2022-09-09T05:55:57;3.05;;;1.58;;
42000;SDS011;27689;48.390;10.856;2022-09-09T05:58:42;5.05;;;1.67;;
42000;SDS011;27689;48.390;10.856;2022-09-09T06:01:31;1.98;;;1.40;;
42000;SDS011;27689;48.390;10.856;2022-09-09T06:04:16;5.05;;;1.80;;
42000;SDS011;27689;48.390;10.856;2022-09-09T06:07:00;3.25;;;1.83;;
42000;SDS011;27689;48.390;10.856;2022-09-09T06:09:44;3.83;;;1.85;;
42000;SDS011;27689;48.390;10.856;2022-09-09T06:12:29;2.10;;;1.38;;
42000;SDS011;27689;48.390;10.856;2022-09-09T06:15:13;3.00;;;1.60;;
42000;SDS011;27689;48.390;10.856;2022-09-09T06:17:57;2.92;;;1.80;;
42000;SDS011;27689;48.390;10.856;2022-09-09T06:20:41;2.40;;;1.60;;
42000;SDS011;27689;48.390;10.856;2022-09-09T06:23:25;1.95;;;1.50;;
42000;SDS011;27689;48.390;10.856;2022-09-09T06:26:31;3.10;;;1.90;;
42000;SDS011;27689;48.390;10.856;2022-09-09T06:29:18;3.58;;;1.60;;
42000;SDS011;27689;48.390;10.856;2022-09-09T06:32:02;1.90;;;1.25;;
42000;SDS011;27689;48.390;10.856;2022-09-09T06:34:46;4.70;;;2.00;;
42000;SDS011;27689;48.390;10.856;2022-09-09T06:37:32;1.88;;;1.60;;
42000;SDS011;27689;48.390;10.856;2022-09-09T06:40:16;3.72;;;1.80;;
42000;SDS011;27689;48.390;10.856;2022-09-09T06:43:01;2.97;;;1.70;;
42000;SDS011;27689;48.390;10.856;2022-09-09T06:45:52;6.13;;;2.00;;
42000;SDS011;27689;48.390;10.856;2022-09-09T06:48:40;3.67;;;1.73;;
42000;SDS011;27689;48.390;10.856;2022-09-09T06:51:26;10.70;;;2.30;;
42000;SDS011;27689;48.390;10.856;2022-09-09T06:54:12;3.08;;;2.13;;
42000;SDS011;27689;48.390;10.856;2022-09-09T06:56:56;4.07;;;1.70;;
42000;SDS011;27689;48.390;10.856;2022-09-09T06:59:40;4.40;;;2.05;;
42000;SDS011;27689;48.390;10.856;2022-09-09T07:02:24;7.03;;;2.40;;
42000;SDS011;27689;48.390;10.856;2022-09-09T07:05:08;6.60;;;1.80;;
42000;SDS011;27689;48.390;10.856;2022-09-09T07:07:52;3.53;;;2.10;;
42000;SDS011;27689;48.390;10.856;2022-09-09T07:10:36;6.90;;;1.95;;
42000;SDS011;27689;48.390;10.856;2022-09-09T07:13:24;3.88;;;2.53;;
42000;SDS011;27689;48.390;10.856;2022-09-09T07:16:13;4.47;;;2.10;;
42000;SDS011;27689;48.390;10.856;2022-09-09T07:18:59;4.50;;;1.88;;
42000;SDS011;27689;48.390;10.856;2022-09-09T07:21:43;5.10;;;2.30;;
42000;SDS011;27689;48.390;10.856;2022-09-09T07:24:28;4.53;;;2.00;;
42000;SDS011;27689;48.390;10.856;2022-09-09T07:27:13;4.07;;;1.85;;
42000;SDS011;27689;48.390;10.856;2022-09-09T07:29:57;3.40;;;1.93;;
42000;SDS011;27689;48.390;10.856;2022-09-09T07:32:41;2.75;;;1.85;;
42000;SDS011;27689;48.390;10.856;2022-09-09T07:35:25;2.80;;;1.92;;
42000;SDS011;27689;48.390;10.856;2022-09-09T07:38:10;4.10;;;2.00;;
42000;SDS011;27689;48.390;10.856;2022-09-09T07:41:02;4.30;;;1.85;;
42000;SDS011;27689;48.390;10.856;2022-09-09T07:43:51;6.70;;;2.20;;
42000;SDS011;27689;48.390;10.856;2022-09-09T07:46:37;4.82;;;2.08;;
42000;SDS011;27689;48.390;10.856;2022-09-09T07:49:24;5.63;;;2.30;;
42000;SDS011;27689;48.390;10.856;2022-09-09T07:52:08;7.72;;;2.33;;
42000;SDS011;27689;48.390;10.856;2022-09-09T07:54:51;7.13;;;2.08;;
42000;SDS011;27689;48.390;10.856;2022-09-09T07:57:35;5.75;;;1.90;;
42000;SDS011;27689;48.390;10.856;2022-09-09T08:00:19;4.67;;;2.40;;
42000;SDS011;27689;48.390;10.856;2022-09-09T08:03:05;7.13;;;2.22;;
42000;SDS011;27689;48.390;10.856;2022-09-09T08:05:49;4.68;;;1.95;;
42000;SDS011;27689;48.390;10.856;2022-09-09T08:08:33;6.97;;;2.10;;
42000;SDS011;27689;48.390;10.856;2022-09-09T08:11:18;4.43;;;1.70;;
42000;SDS011;27689;48.390;10.856;2022-09-09T08:14:03;5.63;;;2.47;;
42000;SDS011;27689;48.390;10.856;2022-09-09T08:16:48;2.65;;;1.50;;
42000;SDS011;27689;48.390;10.856;2022-09-09T08:19:33;5.97;;;1.88;;
42000;SDS011;27689;48.390;10.856;2022-09-09T08:22:20;5.90;;;1.92;;
42000;SDS011;27689;48.390;10.856;2022-09-09T08:25:05;3.28;;;1.65;;
42000;SDS011;27689;48.390;10.856;2022-09-09T08:27:52;4.57;;;1.88;;
42000;SDS011;27689;48.390;10.856;2022-09-09T08:30:36;3.15;;;1.80;;
42000;SDS011;27689;48.390;10.856;2022-09-09T08:33:20;3.90;;;1.70;;
42000;SDS011;27689;48.390;10.856;2022-09-09T08:36:05;2.30;;;1.40;;
42000;SDS011;27689;48.390;10.856;2022-09-09T08:38:53;3.28;;;1.20;;
42000;SDS011;27689;48.390;10.856;2022-09-09T08:44:31;3.55;;;1.17;;
42000;SDS011;27689;48.390;10.856;2022-09-09T08:50:23;4.90;;;1.20;;
42000;SDS011;27689;48.390;10.856;2022-09-09T08:53:16;7.13;;;1.40;;
42000;SDS011;27689;48.390;10.856;2022-09-09T08:56:08;1.75;;;1.23;;
42000;SDS011;27689;48.390;10.856;2022-09-09T08:58:56;2.65;;;1.23;;
42000;SDS011;27689;48.390;10.856;2022-09-09T09:01:51;4.60;;;1.30;;
42000;SDS011;27689;48.390;10.856;2022-09-09T09:10:48;3.60;;;1.08;;
42000;SDS011;27689;48.390;10.856;2022-09-09T09:19:38;3.60;;;1.25;;
42000;SDS011;27689;48.390;10.856;2022-09-09T09:25:31;1.15;;;0.88;;
42000;SDS011;27689;48.390;10.856;2022-09-09T09:28:22;6.18;;;1.65;;
42000;SDS011;27689;48.390;10.856;2022-09-09T09:31:11;3.10;;;1.20;;
42000;SDS011;27689;48.390;10.856;2022-09-09T09:33:56;2.42;;;1.40;;
42000;SDS011;27689;48.390;10.856;2022-09-09T09:36:45;1.83;;;1.00;;
42000;SDS011;27689;48.390;10.856;2022-09-09T09:39:36;3.03;;;1.63;;
42000;SDS011;27689;48.390;10.856;2022-09-09T09:42:21;2.38;;;1.25;;
42000;SDS011;27689;48.390;10.856;2022-09-09T09:48:17;3.22;;;1.30;;
42000;SDS011;27689;48.390;10.856;2022-09-09T09:51:07;2.97;;;1.35;;
42000;SDS011;27689;48.390;10.856;2022-09-09T09:53:54;3.67;;;1.40;;
42000;SDS011;27689;48.390;10.856;2022-09-09T09:57:08;3.30;;;1.25;;
42000;SDS011;27689;48.390;10.856;2022-09-09T10:00:02;5.57;;;1.38;;
42000;SDS011;27689;48.390;10.856;2022-09-09T10:02:55;4.47;;;1.50;;
42000;SDS011;27689;48.390;10.856;2022-09-09T10:05:44;5.95;;;1.67;;
42000;SDS011;27689;48.390;10.856;2022-09-09T10:08:29;5.07;;;1.70;;
42000;SDS011;27689;48.390;10.856;2022-09-09T10:11:26;4.82;;;1.20;;
42000;SDS011;27689;48.390;10.856;2022-09-09T10:14:49;5.90;;;1.27;;
42000;SDS011;27689;48.390;10.856;2022-09-09T10:17:54;4.32;;;1.10;;
42000;SDS011;27689;48.390;10.856;2022-09-09T10:33:50;3.42;;;1.20;;
42000;SDS011;27689;48.390;10.856;2022-09-09T10:36:44;3.85;;;1.13;;
42000;SDS011;27689;48.390;10.856;2022-09-09T10:39:36;3.90;;;1.00;;
42000;SDS011;27689;48.390;10.856;2022-09-09T10:42:26;3.35;;;1.00;;
42000;SDS011;27689;48.390;10.856;2022-09-09T10:45:18;2.13;;;0.90;;
42000;SDS011;27689;48.390;10.856;2022-09-09T11:00:24;9.18;;;1.30;;
42000;SDS011;27689;48.390;10.856;2022-09-09T11:03:27;3.33;;;1.15;;
42000;SDS011;27689;48.390;10.856;2022-09-09T11:09:03;5.50;;;1.35;;
42000;SDS011;27689;48.390;10.856;2022-09-09T11:11:55;5.95;;;1.67;;
42000;SDS011;27689;48.390;10.856;2022-09-09T11:14:44;3.53;;;1.27;;
42000;SDS011;27689;48.390;10.856;2022-09-09T11:17:35;2.85;;;1.13;;
42000;SDS011;27689;48.390;10.856;2022-09-09T11:20:25;4.65;;;1.27;;
42000;SDS011;27689;48.390;10.856;2022-09-09T11:23:14;5.63;;;1.95;;
42000;SDS011;27689;48.390;10.856;2022-09-09T11:26:03;3.42;;;1.20;;
42000;SDS011;27689;48.390;10.856;2022-09-09T11:28:58;4.90;;;1.67;;
42000;SDS011;27689;48.390;10.856;2022-09-09T11:41:02;5.20;;;1.60;;
42000;SDS011;27689;48.390;10.856;2022-09-09T11:43:51;4.28;;;1.55;;
42000;SDS011;27689;48.390;10.856;2022-09-09T11:46:36;4.10;;;1.40;;
42000;SDS011;27689;48.390;10.856;2022-09-09T11:49:44;3.45;;;1.10;;
42000;SDS011;27689;48.390;10.856;2022-09-09T11:52:37;3.90;;;1.15;;
42000;SDS011;27689;48.390;10.856;2022-09-09T11:55:33;6.05;;;1.15;;
42000;SDS011;27689;48.390;10.856;2022-09-09T11:58:19;3.28;;;1.08;;
42000;SDS011;27689;48.390;10.856;2022-09-09T12:09:54;3.00;;;0.90;;
42000;SDS011;27689;48.390;10.856;2022-09-09T12:12:42;2.70;;;1.00;;
42000;SDS011;27689;48.390;10.856;2022-09-09T12:15:28;2.65;;;1.00;;
42000;SDS011;27689;48.390;10.856;2022-09-09T12:18:14;3.38;;;1.30;;
42000;SDS011;27689;48.390;10.856;2022-09-09T12:21:55;4.30;;;1.10;;
42000;SDS011;27689;48.390;10.856;2022-09-09T12:24:52;5.80;;;1.77;;
42000;SDS011;27689;48.390;10.856;2022-09-09T12:27:50;4.97;;;1.35;;
42000;SDS011;27689;48.390;10.856;2022-09-09T12:33:51;5.30;;;1.50;;
42000;SDS011;27689;48.390;10.856;2022-09-09T12:36:36;6.10;;;1.50;;
42000;SDS011;27689;48.390;10.856;2022-09-09T12:39:35;3.47;;;1.25;;
42000;SDS011;27689;48.390;10.856;2022-09-09T12:42:26;5.78;;;1.40;;
42000;SDS011;27689;48.390;10.856;2022-09-09T12:45:20;3.33;;;1.40;;
42000;SDS011;27689;48.390;10.856;2022-09-09T12:48:08;4.93;;;1.27;;
42000;SDS011;27689;48.390;10.856;2022-09-09T12:50:55;6.45;;;1.60;;
42000;SDS011;27689;48.390;10.856;2022-09-09T12:53:40;5.35;;;1.52;;
42000;SDS011;27689;48.390;10.856;2022-09-09T12:56:28;4.35;;;1.40;;
42000;SDS011;27689;48.390;10.856;2022-09-09T12:59:25;3.75;;;1.20;;
42000;SDS011;27689;48.390;10.856;2022-09-09T13:02:20;4.78;;;1.10;;
42000;SDS011;27689;48.390;10.856;2022-09-09T13:05:09;5.72;;;1.30;;
42000;SDS011;27689;48.390;10.856;2022-09-09T13:08:05;3.83;;;1.23;;
42000;SDS011;27689;48.390;10.856;2022-09-09T13:13:49;5.88;;;1.50;;
42000;SDS011;27689;48.390;10.856;2022-09-09T13:16:35;6.38;;;1.60;;
42000;SDS011;27689;48.390;10.856;2022-09-09T13:19:20;5.30;;;1.20;;
42000;SDS011;27689;48.390;10.856;2022-09-09T13:22:11;4.68;;;1.13;;
42000;SDS011;27689;48.390;10.856;2022-09-09T13:25:05;3.80;;;1.60;;
42000;SDS011;27689;48.390;10.856;2022-09-09T13:28:36;4.25;;;0.90;;
42000;SDS011;27689;48.390;10.856;2022-09-09T13:31:05;6.03;;;1.33;;
42000;SDS011;27689;48.390;10.856;2022-09-09T13:34:13;4.60;;;1.23;;
42000;SDS011;27689;48.390;10.856;2022-09-09T13:37:17;5.57;;;1.88;;
42000;SDS011;27689;48.390;10.856;2022-09-09T13:40:16;3.00;;;1.00;;
42000;SDS011;27689;48.390;10.856;2022-09-09T13:43:02;3.03;;;0.90;;
42000;SDS011;27689;48.390;10.856;2022-09-09T13:45:57;3.13;;;1.02;;
42000;SDS011;27689;48.390;10.856;2022-09-09T13:48:53;4.28;;;1.38;;
42000;SDS011;27689;48.390;10.856;2022-09-09T13:52:10;4.90;;;1.02;;
42000;SDS011;27689;48.390;10.856;2022-09-09T13:54:56;4.32;;;1.00;;
42000;SDS011;27689;48.390;10.856;2022-09-09T13:57:50;4.28;;;0.90;;
42000;SDS011;27689;48.390;10.856;2022-09-09T14:00:38;5.20;;;1.15;;
42000;SDS011;27689;48.390;10.856;2022-09-09T14:03:23;3.67;;;1.00;;
42000;SDS011;27689;48.390;10.856;2022-09-09T14:06:07;3.78;;;1.35;;
42000;SDS011;27689;48.390;10.856;2022-09-09T14:08:50;4.30;;;1.45;;
42000;SDS011;27689;48.390;10.856;2022-09-09T14:11:35;4.97;;;1.37;;
42000;SDS011;27689;48.390;10.856;2022-09-09T14:14:17;4.43;;;1.55;;
42000;SDS011;27689;48.390;10.856;2022-09-09T14:17:01;3.05;;;1.45;;
42000;SDS011;27689;48.390;10.856;2022-09-09T14:19:44;4.03;;;1.42;;
42000;SDS011;27689;48.390;10.856;2022-09-09T14:22:29;2.47;;;1.02;;
42000;SDS011;27689;48.390;10.856;2022-09-09T14:25:13;3.03;;;0.98;;
42000;SDS011;27689;48.390;10.856;2022-09-09T14:27:57;7.23;;;1.60;;
42000;SDS011;27689;48.390;10.856;2022-09-09T14:30:41;4.55;;;1.60;;
42000;SDS011;27689;48.390;10.856;2022-09-09T14:33:27;5.55;;;1.20;;
42000;SDS011;27689;48.390;10.856;2022-09-09T14:36:20;3.65;;;1.10;;
42000;SDS011;27689;48.390;10.856;2022-09-09T14:39:11;3.28;;;1.05;;
42000;SDS011;27689;48.390;10.856;2022-09-09T14:41:55;6.95;;;0.90;;
42000;SDS011;27689;48.390;10.856;2022-09-09T14:44:42;3.53;;;0.80;;
42000;SDS011;27689;48.390;10.856;2022-09-09T14:47:29;4.93;;;1.20;;
42000;SDS011;27689;48.390;10.856;2022-09-09T14:50:22;2.85;;;0.75;;
42000;SDS011;27689;48.390;10.856;2022-09-09T14:53:07;2.42;;;0.80;;
42000;SDS011;27689;48.390;10.856;2022-09-09T14:55:52;4.88;;;0.80;;
42000;SDS011;27689;48.390;10.856;2022-09-09T14:58:36;2.77;;;0.90;;
42000;SDS011;27689;48.390;10.856;2022-09-09T15:01:21;1.48;;;0.77;;
42000;SDS011;27689;48.390;10.856;2022-09-09T15:04:07;2.15;;;0.88;;
42000;SDS011;27689;48.390;10.856;2022-09-09T15:06:51;3.65;;;1.05;;
42000;SDS011;27689;48.390;10.856;2022-09-09T15:09:36;1.92;;;0.98;;
42000;SDS011;27689;48.390;10.856;2022-09-09T15:12:20;1.55;;;0.70;;
42000;SDS011;27689;48.390;10.856;2022-09-09T15:15:04;3.00;;;0.65;;
42000;SDS011;27689;48.390;10.856;2022-09-09T15:17:49;4.55;;;0.80;;
42000;SDS011;27689;48.390;10.856;2022-09-09T15:20:32;3.63;;;0.90;;
42000;SDS011;27689;48.390;10.856;2022-09-09T15:23:16;1.92;;;0.90;;
42000;SDS011;27689;48.390;10.856;2022-09-09T15:26:00;2.10;;;0.73;;
42000;SDS011;27689;48.390;10.856;2022-09-09T15:28:45;1.65;;;0.80;;
42000;SDS011;27689;48.390;10.856;2022-09-09T15:31:31;1.73;;;0.80;;
42000;SDS011;27689;48.390;10.856;2022-09-09T15:34:15;3.90;;;1.20;;
42000;SDS011;27689;48.390;10.856;2022-09-09T15:36:59;5.63;;;0.95;;
42000;SDS011;27689;48.390;10.856;2022-09-09T15:39:43;3.72;;;1.00;;
42000;SDS011;27689;48.390;10.856;2022-09-09T15:42:27;2.50;;;0.80;;
42000;SDS011;27689;48.390;10.856;2022-09-09T15:45:11;2.55;;;0.80;;
42000;SDS011;27689;48.390;10.856;2022-09-09T15:47:56;3.20;;;1.13;;
42000;SDS011;27689;48.390;10.856;2022-09-09T15:50:40;3.15;;;1.00;;
42000;SDS011;27689;48.390;10.856;2022-09-09T15:53:24;2.83;;;1.10;;
42000;SDS011;27689;48.390;10.856;2022-09-09T15:56:08;1.98;;;1.02;;
42000;SDS011;27689;48.390;10.856;2022-09-09T15:58:52;4.05;;;1.02;;
42000;SDS011;27689;48.390;10.856;2022-09-09T16:01:37;5.75;;;1.10;;
42000;SDS011;27689;48.390;10.856;2022-09-09T16:04:23;3.97;;;1.05;;
42000;SDS011;27689;48.390;10.856;2022-09-09T16:09:51;1.35;;;1.02;;
42000;SDS011;27689;48.390;10.856;2022-09-09T16:12:36;2.10;;;0.85;;
42000;SDS011;27689;48.390;10.856;2022-09-09T16:15:20;2.60;;;0.90;;
42000;SDS011;27689;48.390;10.856;2022-09-09T16:18:05;2.53;;;1.00;;
42000;SDS011;27689;48.390;10.856;2022-09-09T16:20:53;2.55;;;1.08;;
42000;SDS011;27689;48.390;10.856;2022-09-09T16:23:38;3.13;;;1.20;;
42000;SDS011;27689;48.390;10.856;2022-09-09T16:26:22;3.00;;;1.13;;
42000;SDS011;27689;48.390;10.856;2022-09-09T16:29:06;2.50;;;0.98;;
42000;SDS011;27689;48.390;10.856;2022-09-09T16:31:51;3.63;;;1.33;;
42000;SDS011;27689;48.390;10.856;2022-09-09T16:34:35;2.97;;;1.10;;
42000;SDS011;27689;48.390;10.856;2022-09-09T16:37:19;4.10;;;1.30;;
42000;SDS011;27689;48.390;10.856;2022-09-09T16:40:03;2.72;;;1.02;;
42000;SDS011;27689;48.390;10.856;2022-09-09T16:42:47;3.55;;;1.15;;
42000;SDS011;27689;48.390;10.856;2022-09-09T16:45:31;2.47;;;1.17;;
42000;SDS011;27689;48.390;10.856;2022-09-09T16:48:16;2.60;;;1.20;;
42000;SDS011;27689;48.390;10.856;2022-09-09T16:51:04;3.03;;;1.17;;
42000;SDS011;27689;48.390;10.856;2022-09-09T16:53:50;5.45;;;1.20;;
42000;SDS011;27689;48.390;10.856;2022-09-09T16:56:37;2.38;;;1.02;;
42000;SDS011;27689;48.390;10.856;2022-09-09T16:59:25;1.98;;;1.10;;
42000;SDS011;27689;48.390;10.856;2022-09-09T17:02:09;2.95;;;1.20;;
42000;SDS011;27689;48.390;10.856;2022-09-09T17:04:53;3.78;;;1.33;;
42000;SDS011;27689;48.390;10.856;2022-09-09T17:07:37;1.60;;;0.98;;
42000;SDS011;27689;48.390;10.856;2022-09-09T17:10:22;1.85;;;0.93;;
42000;SDS011;27689;48.390;10.856;2022-09-09T17:13:06;1.77;;;0.80;;
42000;SDS011;27689;48.390;10.856;2022-09-09T17:15:50;1.67;;;1.10;;
42000;SDS011;27689;48.390;10.856;2022-09-09T17:18:34;2.07;;;1.07;;
42000;SDS011;27689;48.390;10.856;2022-09-09T17:21:20;7.20;;;5.47;;
42000;SDS011;27689;48.390;10.856;2022-09-09T17:24:05;10.95;;;8.32;;
42000;SDS011;27689;48.390;10.856;2022-09-09T17:26:51;25.45;;;15.45;;
42000;SDS011;27689;48.390;10.856;2022-09-09T17:29:35;15.55;;;8.57;;
42000;SDS011;27689;48.390;10.856;2022-09-09T17:32:19;8.75;;;5.25;;
42000;SDS011;27689;48.390;10.856;2022-09-09T17:35:03;4.83;;;2.57;;
42000;SDS011;27689;48.390;10.856;2022-09-09T17:37:49;5.72;;;3.58;;
42000;SDS011;27689;48.390;10.856;2022-09-09T17:40:33;4.47;;;2.97;;
42000;SDS011;27689;48.390;10.856;2022-09-09T17:43:17;7.53;;;2.65;;
42000;SDS011;27689;48.390;10.856;2022-09-09T17:46:23;2.78;;;1.55;;
42000;SDS011;27689;48.390;10.856;2022-09-09T17:49:10;4.15;;;1.52;;
42000;SDS011;27689;48.390;10.856;2022-09-09T17:51:58;2.55;;;1.42;;
42000;SDS011;27689;48.390;10.856;2022-09-09T17:54:42;2.30;;;1.30;;
42000;SDS011;27689;48.390;10.856;2022-09-09T17:57:26;1.92;;;1.27;;
42000;SDS011;27689;48.390;10.856;2022-09-09T18:00:11;3.50;;;1.30;;
42000;SDS011;27689;48.390;10.856;2022-09-09T18:02:56;2.83;;;1.10;;
42000;SDS011;27689;48.390;10.856;2022-09-09T18:05:39;6.55;;;1.73;;
42000;SDS011;27689;48.390;10.856;2022-09-09T18:08:23;4.78;;;1.10;;
42000;SDS011;27689;48.390;10.856;2022-09-09T18:11:07;2.60;;;0.60;;
42000;SDS011;27689;48.390;10.856;2022-09-09T18:13:52;3.95;;;1.00;;
42000;SDS011;27689;48.390;10.856;2022-09-09T18:16:39;2.83;;;0.85;;
42000;SDS011;27689;48.390;10.856;2022-09-09T18:19:26;3.45;;;0.88;;
42000;SDS011;27689;48.390;10.856;2022-09-09T18:22:13;4.38;;;1.10;;
42000;SDS011;27689;48.390;10.856;2022-09-09T18:24:57;1.58;;;0.60;;
42000;SDS011;27689;48.390;10.856;2022-09-09T18:30:26;2.20;;;0.50;;
42000;SDS011;27689;48.390;10.856;2022-09-09T18:33:10;2.60;;;1.15;;
42000;SDS011;27689;48.390;10.856;2022-09-09T18:35:55;3.45;;;0.80;;
42000;SDS011;27689;48.390;10.856;2022-09-09T18:38:40;8.15;;;1.02;;
42000;SDS011;27689;48.390;10.856;2022-09-09T18:41:25;4.65;;;1.10;;
42000;SDS011;27689;48.390;10.856;2022-09-09T18:44:22;3.50;;;1.10;;
42000;SDS011;27689;48.390;10.856;2022-09-09T18:47:08;3.33;;;1.20;;
42000;SDS011;27689;48.390;10.856;2022-09-09T18:49:53;1.98;;;0.85;;